logo
Rechercher aéroport 
image banner adimage banner adimage banner ad
image banner ad

MMSQA - San Pedro De La Cueva

Situé à San Pedro De La Cueva, Mexico

ICAO - , IATA -

Données fournies par Airmate  

Information générale

Coordonnées: N29°17'19" W109°45'2"
Élévation : 1207 feet MSL.
Variation magnétique : 8° East
Voir autres Aéroports à Sonora

Données opérationnelles

Special qualification required
Heure actuelle UTC:
Heure actuelle locale:
Météo à : - ( 0 km )
METAR: PADK 180012Z AUTO 02011KT 10SM OVC015 07/04 A2996 RMK AO2 $
Voir NOTAMs / SUP AIP / TFR affectant cet aéroport [VIEW]
Fréquences de communication: [VIEW]

Pistes:

Identifiant RWYQFULongueur (ft)Largeur (ft)SurfaceLDA (ft)
34352°419450CONC
16172°419450CONC

Coordonnées de l'aéroport

Adresse: San Pedro De La Cueva Mexico

Vue satellite de MMSQA